sensor_id;sensor_type;location;lat;lon;timestamp;temperature;humidity
484;DHT22;228;48.922;12.198;2023-01-09T00:01:48;7.80;73.60
484;DHT22;228;48.922;12.198;2023-01-09T00:04:15;6.90;76.20
484;DHT22;228;48.922;12.198;2023-01-09T00:06:41;7.00;78.00
484;DHT22;228;48.922;12.198;2023-01-09T00:09:09;7.20;77.50
484;DHT22;228;48.922;12.198;2023-01-09T00:11:35;7.50;77.00
484;DHT22;228;48.922;12.198;2023-01-09T00:14:02;7.20;76.90
484;DHT22;228;48.922;12.198;2023-01-09T00:16:29;7.40;76.40
484;DHT22;228;48.922;12.198;2023-01-09T00:18:55;7.00;77.30
484;DHT22;228;48.922;12.198;2023-01-09T00:21:21;7.10;77.60
484;DHT22;228;48.922;12.198;2023-01-09T00:23:52;6.80;78.80
484;DHT22;228;48.922;12.198;2023-01-09T00:26:19;6.60;78.70
484;DHT22;228;48.922;12.198;2023-01-09T00:28:47;6.90;78.70
484;DHT22;228;48.922;12.198;2023-01-09T00:31:16;6.70;78.50
484;DHT22;228;48.922;12.198;2023-01-09T00:36:44;7.00;78.00
484;DHT22;228;48.922;12.198;2023-01-09T00:39:10;7.00;77.40
484;DHT22;228;48.922;12.198;2023-01-09T00:41:42;7.30;77.50
484;DHT22;228;48.922;12.198;2023-01-09T00:44:17;7.70;75.40
484;DHT22;228;48.922;12.198;2023-01-09T00:46:54;7.70;75.30
484;DHT22;228;48.922;12.198;2023-01-09T00:49:22;8.00;74.20
484;DHT22;228;48.922;12.198;2023-01-09T00:51:49;8.00;73.50
484;DHT22;228;48.922;12.198;2023-01-09T00:54:17;7.90;73.90
484;DHT22;228;48.922;12.198;2023-01-09T00:56:43;8.00;73.60
484;DHT22;228;48.922;12.198;2023-01-09T00:59:10;7.80;74.20
484;DHT22;228;48.922;12.198;2023-01-09T01:01:36;8.00;74.10
484;DHT22;228;48.922;12.198;2023-01-09T01:04:02;8.20;73.40
484;DHT22;228;48.922;12.198;2023-01-09T01:06:48;7.90;72.60
484;DHT22;228;48.922;12.198;2023-01-09T01:09:32;7.80;74.00
484;DHT22;228;48.922;12.198;2023-01-09T01:12:00;7.80;74.60
484;DHT22;228;48.922;12.198;2023-01-09T01:14:26;8.00;74.30
484;DHT22;228;48.922;12.198;2023-01-09T01:16:52;8.10;73.30
484;DHT22;228;48.922;12.198;2023-01-09T01:19:18;8.20;73.20
484;DHT22;228;48.922;12.198;2023-01-09T01:21:44;8.30;72.80
484;DHT22;228;48.922;12.198;2023-01-09T01:24:10;8.30;72.40
484;DHT22;228;48.922;12.198;2023-01-09T01:26:36;8.20;72.50
484;DHT22;228;48.922;12.198;2023-01-09T01:29:02;8.20;72.90
484;DHT22;228;48.922;12.198;2023-01-09T01:31:28;8.30;72.60
484;DHT22;228;48.922;12.198;2023-01-09T01:33:54;8.30;72.20
484;DHT22;228;48.922;12.198;2023-01-09T01:36:20;8.30;72.50
484;DHT22;228;48.922;12.198;2023-01-09T01:38:46;8.30;72.30
484;DHT22;228;48.922;12.198;2023-01-09T01:41:12;8.00;73.20
484;DHT22;228;48.922;12.198;2023-01-09T01:44:01;7.90;74.00
484;DHT22;228;48.922;12.198;2023-01-09T01:46:30;8.00;74.40
484;DHT22;228;48.922;12.198;2023-01-09T01:51:40;8.30;73.40
484;DHT22;228;48.922;12.198;2023-01-09T01:54:13;8.40;72.50
484;DHT22;228;48.922;12.198;2023-01-09T01:56:48;7.90;73.20
484;DHT22;228;48.922;12.198;2023-01-09T01:59:35;7.20;76.00
484;DHT22;228;48.922;12.198;2023-01-09T02:02:06;7.00;77.20
484;DHT22;228;48.922;12.198;2023-01-09T02:04:35;7.20;77.60
484;DHT22;228;48.922;12.198;2023-01-09T02:07:08;7.40;77.10
484;DHT22;228;48.922;12.198;2023-01-09T02:09:35;7.70;76.00
484;DHT22;228;48.922;12.198;2023-01-09T02:12:21;8.00;76.30
484;DHT22;228;48.922;12.198;2023-01-09T02:14:56;8.20;74.50
484;DHT22;228;48.922;12.198;2023-01-09T02:20:51;8.50;73.20
484;DHT22;228;48.922;12.198;2023-01-09T02:27:12;8.70;72.10
484;DHT22;228;48.922;12.198;2023-01-09T02:30:23;8.80;71.90
484;DHT22;228;48.922;12.198;2023-01-09T02:33:12;8.80;71.50
484;DHT22;228;48.922;12.198;2023-01-09T02:35:52;8.70;72.10
484;DHT22;228;48.922;12.198;2023-01-09T02:41:51;8.40;72.50
484;DHT22;228;48.922;12.198;2023-01-09T02:44:25;8.30;73.50
484;DHT22;228;48.922;12.198;2023-01-09T02:47:07;8.50;73.20
484;DHT22;228;48.922;12.198;2023-01-09T02:49:59;8.50;73.10
484;DHT22;228;48.922;12.198;2023-01-09T03:01:01;8.60;72.70
484;DHT22;228;48.922;12.198;2023-01-09T03:06:55;8.20;73.40
484;DHT22;228;48.922;12.198;2023-01-09T03:09:29;8.20;73.80
484;DHT22;228;48.922;12.198;2023-01-09T03:12:06;7.80;74.40
484;DHT22;228;48.922;12.198;2023-01-09T03:14:37;7.90;75.50
484;DHT22;228;48.922;12.198;2023-01-09T03:17:10;8.20;74.80
484;DHT22;228;48.922;12.198;2023-01-09T03:19:38;8.50;73.80
484;DHT22;228;48.922;12.198;2023-01-09T03:22:07;8.50;73.00
484;DHT22;228;48.922;12.198;2023-01-09T03:24:33;8.50;72.90
484;DHT22;228;48.922;12.198;2023-01-09T03:26:59;8.40;73.00
484;DHT22;228;48.922;12.198;2023-01-09T03:29:25;8.40;73.40
484;DHT22;228;48.922;12.198;2023-01-09T03:31:51;8.40;73.40
484;DHT22;228;48.922;12.198;2023-01-09T03:34:17;8.50;73.30
484;DHT22;228;48.922;12.198;2023-01-09T03:36:43;8.30;72.90
484;DHT22;228;48.922;12.198;2023-01-09T03:39:09;8.00;74.30
484;DHT22;228;48.922;12.198;2023-01-09T03:41:35;8.10;74.40
484;DHT22;228;48.922;12.198;2023-01-09T03:44:01;8.20;73.80
484;DHT22;228;48.922;12.198;2023-01-09T03:46:27;8.10;74.20
484;DHT22;228;48.922;12.198;2023-01-09T03:48:52;8.20;74.00
484;DHT22;228;48.922;12.198;2023-01-09T03:51:18;8.00;74.60
484;DHT22;228;48.922;12.198;2023-01-09T03:53:44;8.10;74.10
484;DHT22;228;48.922;12.198;2023-01-09T03:56:10;8.10;73.70
484;DHT22;228;48.922;12.198;2023-01-09T03:58:36;8.20;73.80
484;DHT22;228;48.922;12.198;2023-01-09T04:01:04;7.90;74.30
484;DHT22;228;48.922;12.198;2023-01-09T04:03:34;7.60;75.20
484;DHT22;228;48.922;12.198;2023-01-09T04:06:00;7.80;75.30
484;DHT22;228;48.922;12.198;2023-01-09T04:08:26;7.80;74.80
484;DHT22;228;48.922;12.198;2023-01-09T04:10:52;7.90;75.10
484;DHT22;228;48.922;12.198;2023-01-09T04:13:18;7.90;74.80
484;DHT22;228;48.922;12.198;2023-01-09T04:15:44;7.90;75.20
484;DHT22;228;48.922;12.198;2023-01-09T04:18:10;7.90;74.60
484;DHT22;228;48.922;12.198;2023-01-09T04:20:36;7.80;75.20
484;DHT22;228;48.922;12.198;2023-01-09T04:23:02;7.80;75.00
484;DHT22;228;48.922;12.198;2023-01-09T04:25:28;8.00;75.00
484;DHT22;228;48.922;12.198;2023-01-09T04:27:54;8.10;74.60
484;DHT22;228;48.922;12.198;2023-01-09T04:30:20;8.00;74.90
484;DHT22;228;48.922;12.198;2023-01-09T04:32:46;8.10;74.40
484;DHT22;228;48.922;12.198;2023-01-09T04:35:12;8.20;73.90
484;DHT22;228;48.922;12.198;2023-01-09T04:37:38;8.20;73.70
484;DHT22;228;48.922;12.198;2023-01-09T04:40:05;8.10;73.90
484;DHT22;228;48.922;12.198;2023-01-09T04:42:36;8.10;75.00
484;DHT22;228;48.922;12.198;2023-01-09T04:45:06;8.30;74.60
484;DHT22;228;48.922;12.198;2023-01-09T04:47:33;8.30;74.10
484;DHT22;228;48.922;12.198;2023-01-09T04:49:59;8.30;73.90
484;DHT22;228;48.922;12.198;2023-01-09T04:52:26;8.20;74.10
484;DHT22;228;48.922;12.198;2023-01-09T04:54:53;8.30;74.30
484;DHT22;228;48.922;12.198;2023-01-09T04:57:19;8.10;74.40
484;DHT22;228;48.922;12.198;2023-01-09T04:59:45;8.30;74.00
484;DHT22;228;48.922;12.198;2023-01-09T05:02:11;8.40;73.90
484;DHT22;228;48.922;12.198;2023-01-09T05:04:37;8.30;73.80
484;DHT22;228;48.922;12.198;2023-01-09T05:07:03;8.40;73.90
484;DHT22;228;48.922;12.198;2023-01-09T05:09:29;8.30;73.70
484;DHT22;228;48.922;12.198;2023-01-09T05:11:55;8.30;74.10
484;DHT22;228;48.922;12.198;2023-01-09T05:14:21;8.40;73.90
484;DHT22;228;48.922;12.198;2023-01-09T05:16:47;8.40;73.80
484;DHT22;228;48.922;12.198;2023-01-09T05:19:13;8.20;73.60
484;DHT22;228;48.922;12.198;2023-01-09T05:21:39;8.10;74.60
484;DHT22;228;48.922;12.198;2023-01-09T05:24:05;7.70;75.10
484;DHT22;228;48.922;12.198;2023-01-09T05:26:31;7.60;76.60
484;DHT22;228;48.922;12.198;2023-01-09T05:28:57;7.50;77.00
484;DHT22;228;48.922;12.198;2023-01-09T05:31:25;7.40;77.60
484;DHT22;228;48.922;12.198;2023-01-09T05:33:51;7.60;77.70
484;DHT22;228;48.922;12.198;2023-01-09T05:36:18;7.80;76.50
484;DHT22;228;48.922;12.198;2023-01-09T05:38:44;7.80;76.50
484;DHT22;228;48.922;12.198;2023-01-09T05:41:10;7.90;76.60
484;DHT22;228;48.922;12.198;2023-01-09T05:43:36;8.20;75.60
484;DHT22;228;48.922;12.198;2023-01-09T05:46:02;8.30;75.30
484;DHT22;228;48.922;12.198;2023-01-09T05:48:28;8.50;74.80
484;DHT22;228;48.922;12.198;2023-01-09T05:50:54;8.50;73.60
484;DHT22;228;48.922;12.198;2023-01-09T05:53:20;8.70;74.00
484;DHT22;228;48.922;12.198;2023-01-09T05:55:46;8.90;73.30
484;DHT22;228;48.922;12.198;2023-01-09T05:58:12;8.90;73.00
484;DHT22;228;48.922;12.198;2023-01-09T06:00:38;8.80;72.80
484;DHT22;228;48.922;12.198;2023-01-09T06:03:04;8.80;72.90
484;DHT22;228;48.922;12.198;2023-01-09T06:05:30;8.90;72.70
484;DHT22;228;48.922;12.198;2023-01-09T06:07:56;9.10;72.00
484;DHT22;228;48.922;12.198;2023-01-09T06:10:22;8.90;71.90
484;DHT22;228;48.922;12.198;2023-01-09T06:12:49;8.80;72.40
484;DHT22;228;48.922;12.198;2023-01-09T06:15:16;8.70;73.00
484;DHT22;228;48.922;12.198;2023-01-09T06:17:42;8.80;73.50
484;DHT22;228;48.922;12.198;2023-01-09T06:20:10;8.90;73.00
484;DHT22;228;48.922;12.198;2023-01-09T06:22:36;9.10;72.50
484;DHT22;228;48.922;12.198;2023-01-09T06:25:02;9.10;72.20
484;DHT22;228;48.922;12.198;2023-01-09T06:27:29;9.20;72.20
484;DHT22;228;48.922;12.198;2023-01-09T06:29:55;9.30;71.80
484;DHT22;228;48.922;12.198;2023-01-09T06:32:21;9.40;71.50
484;DHT22;228;48.922;12.198;2023-01-09T06:34:47;9.40;71.20
484;DHT22;228;48.922;12.198;2023-01-09T06:37:13;9.40;70.60
484;DHT22;228;48.922;12.198;2023-01-09T06:39:39;9.50;70.40
484;DHT22;228;48.922;12.198;2023-01-09T06:42:05;9.60;70.30
484;DHT22;228;48.922;12.198;2023-01-09T06:44:31;9.40;70.30
484;DHT22;228;48.922;12.198;2023-01-09T06:46:58;9.20;71.20
484;DHT22;228;48.922;12.198;2023-01-09T06:49:24;9.00;71.30
484;DHT22;228;48.922;12.198;2023-01-09T06:51:50;8.60;72.90
484;DHT22;228;48.922;12.198;2023-01-09T06:54:17;8.70;73.80
484;DHT22;228;48.922;12.198;2023-01-09T06:56:43;8.90;73.00
484;DHT22;228;48.922;12.198;2023-01-09T06:59:10;8.90;72.90
484;DHT22;228;48.922;12.198;2023-01-09T07:01:37;8.70;73.10
484;DHT22;228;48.922;12.198;2023-01-09T07:04:06;8.30;74.80
484;DHT22;228;48.922;12.198;2023-01-09T07:06:34;8.60;74.40
484;DHT22;228;48.922;12.198;2023-01-09T07:09:01;8.50;73.80
484;DHT22;228;48.922;12.198;2023-01-09T07:11:27;8.60;73.90
484;DHT22;228;48.922;12.198;2023-01-09T07:13:53;8.40;73.70
484;DHT22;228;48.922;12.198;2023-01-09T07:16:19;8.50;74.30
484;DHT22;228;48.922;12.198;2023-01-09T07:18:45;8.60;73.90
484;DHT22;228;48.922;12.198;2023-01-09T07:21:11;8.60;73.60
484;DHT22;228;48.922;12.198;2023-01-09T07:23:37;8.40;74.30
484;DHT22;228;48.922;12.198;2023-01-09T07:26:03;8.50;74.80
484;DHT22;228;48.922;12.198;2023-01-09T07:28:29;8.70;74.20
484;DHT22;228;48.922;12.198;2023-01-09T07:30:57;8.90;73.40
484;DHT22;228;48.922;12.198;2023-01-09T07:33:23;9.00;73.70
484;DHT22;228;48.922;12.198;2023-01-09T07:35:50;9.10;73.10
484;DHT22;228;48.922;12.198;2023-01-09T07:38:16;8.80;73.00
484;DHT22;228;48.922;12.198;2023-01-09T07:40:42;8.00;76.70
484;DHT22;228;48.922;12.198;2023-01-09T07:43:08;7.40;80.00
484;DHT22;228;48.922;12.198;2023-01-09T07:45:34;7.10;82.80
484;DHT22;228;48.922;12.198;2023-01-09T07:48:00;6.80;84.50
484;DHT22;228;48.922;12.198;2023-01-09T07:50:26;6.40;87.50
484;DHT22;228;48.922;12.198;2023-01-09T07:52:51;6.40;88.40
484;DHT22;228;48.922;12.198;2023-01-09T07:55:17;6.60;88.20
484;DHT22;228;48.922;12.198;2023-01-09T07:57:47;6.60;88.50
484;DHT22;228;48.922;12.198;2023-01-09T08:00:14;6.50;88.90
484;DHT22;228;48.922;12.198;2023-01-09T08:02:41;6.70;88.90
484;DHT22;228;48.922;12.198;2023-01-09T08:05:07;6.80;87.90
484;DHT22;228;48.922;12.198;2023-01-09T08:07:38;6.90;87.20
484;DHT22;228;48.922;12.198;2023-01-09T08:10:04;7.00;86.10
484;DHT22;228;48.922;12.198;2023-01-09T08:12:30;6.80;87.10
484;DHT22;228;48.922;12.198;2023-01-09T08:14:56;6.60;87.70
484;DHT22;228;48.922;12.198;2023-01-09T08:17:22;6.60;87.30
484;DHT22;228;48.922;12.198;2023-01-09T08:19:48;6.70;87.40
484;DHT22;228;48.922;12.198;2023-01-09T08:22:14;6.80;86.50
484;DHT22;228;48.922;12.198;2023-01-09T08:24:40;6.80;85.80
484;DHT22;228;48.922;12.198;2023-01-09T08:27:06;6.60;86.20
484;DHT22;228;48.922;12.198;2023-01-09T08:29:32;6.70;86.30
484;DHT22;228;48.922;12.198;2023-01-09T08:31:58;6.80;85.80
484;DHT22;228;48.922;12.198;2023-01-09T08:34:24;6.80;84.70
484;DHT22;228;48.922;12.198;2023-01-09T08:36:50;7.00;84.10
484;DHT22;228;48.922;12.198;2023-01-09T08:39:18;7.10;84.60
484;DHT22;228;48.922;12.198;2023-01-09T08:41:44;7.30;82.70
484;DHT22;228;48.922;12.198;2023-01-09T08:44:29;7.40;81.90
484;DHT22;228;48.922;12.198;2023-01-09T08:47:30;7.40;81.70
484;DHT22;228;48.922;12.198;2023-01-09T08:49:59;7.40;80.90
484;DHT22;228;48.922;12.198;2023-01-09T08:52:25;7.60;80.60
484;DHT22;228;48.922;12.198;2023-01-09T08:54:52;7.70;80.30
484;DHT22;228;48.922;12.198;2023-01-09T08:57:18;8.00;79.40
484;DHT22;228;48.922;12.198;2023-01-09T08:59:44;8.00;79.20
484;DHT22;228;48.922;12.198;2023-01-09T09:02:09;8.20;78.20
484;DHT22;228;48.922;12.198;2023-01-09T09:04:35;8.30;77.60
484;DHT22;228;48.922;12.198;2023-01-09T09:07:01;8.60;77.40
484;DHT22;228;48.922;12.198;2023-01-09T09:09:27;8.60;76.90
484;DHT22;228;48.922;12.198;2023-01-09T09:11:53;8.60;76.10
484;DHT22;228;48.922;12.198;2023-01-09T09:14:19;8.40;76.80
484;DHT22;228;48.922;12.198;2023-01-09T09:17:04;8.40;76.80
484;DHT22;228;48.922;12.198;2023-01-09T09:19:30;8.50;77.20
484;DHT22;228;48.922;12.198;2023-01-09T09:21:59;9.00;76.50
484;DHT22;228;48.922;12.198;2023-01-09T09:24:25;8.80;75.90
484;DHT22;228;48.922;12.198;2023-01-09T09:26:51;8.80;76.20
484;DHT22;228;48.922;12.198;2023-01-09T09:29:17;9.10;76.30
484;DHT22;228;48.922;12.198;2023-01-09T09:31:43;8.80;75.20
484;DHT22;228;48.922;12.198;2023-01-09T09:34:10;8.90;75.70
484;DHT22;228;48.922;12.198;2023-01-09T09:36:37;8.90;75.10
484;DHT22;228;48.922;12.198;2023-01-09T09:39:03;8.80;74.80
484;DHT22;228;48.922;12.198;2023-01-09T09:44:59;8.70;74.00
484;DHT22;228;48.922;12.198;2023-01-09T09:54:12;8.60;73.90
484;DHT22;228;48.922;12.198;2023-01-09T09:56:49;8.90;73.00
484;DHT22;228;48.922;12.198;2023-01-09T09:59:21;9.00;73.10
484;DHT22;228;48.922;12.198;2023-01-09T10:02:01;9.40;72.10
484;DHT22;228;48.922;12.198;2023-01-09T10:04:36;9.70;71.60
484;DHT22;228;48.922;12.198;2023-01-09T10:07:09;9.60;70.40
484;DHT22;228;48.922;12.198;2023-01-09T10:09:48;9.80;71.50
484;DHT22;228;48.922;12.198;2023-01-09T10:12:30;10.30;68.80
484;DHT22;228;48.922;12.198;2023-01-09T10:15:05;10.20;68.20
484;DHT22;228;48.922;12.198;2023-01-09T10:18:02;10.10;68.50
484;DHT22;228;48.922;12.198;2023-01-09T10:23:49;9.10;71.40
484;DHT22;228;48.922;12.198;2023-01-09T10:26:28;9.30;71.90
484;DHT22;228;48.922;12.198;2023-01-09T10:37:36;9.00;70.20
484;DHT22;228;48.922;12.198;2023-01-09T10:45:42;9.70;70.30
484;DHT22;228;48.922;12.198;2023-01-09T10:51:38;9.90;69.50
484;DHT22;228;48.922;12.198;2023-01-09T10:54:19;9.60;69.30
484;DHT22;228;48.922;12.198;2023-01-09T10:57:34;9.30;70.20
484;DHT22;228;48.922;12.198;2023-01-09T10:59:43;9.40;70.20
484;DHT22;228;48.922;12.198;2023-01-09T11:02:26;9.10;70.70
484;DHT22;228;48.922;12.198;2023-01-09T11:04:55;9.20;70.10
484;DHT22;228;48.922;12.198;2023-01-09T11:07:25;9.20;70.00
484;DHT22;228;48.922;12.198;2023-01-09T11:09:59;8.70;71.20
484;DHT22;228;48.922;12.198;2023-01-09T11:12:32;8.40;72.70
484;DHT22;228;48.922;12.198;2023-01-09T11:17:46;8.60;72.10
484;DHT22;228;48.922;12.198;2023-01-09T11:20:19;8.60;71.90
484;DHT22;228;48.922;12.198;2023-01-09T11:22:53;8.70;71.90
484;DHT22;228;48.922;12.198;2023-01-09T11:25:22;8.80;71.30
484;DHT22;228;48.922;12.198;2023-01-09T11:28:10;8.80;71.60
484;DHT22;228;48.922;12.198;2023-01-09T11:30:49;8.90;71.20
484;DHT22;228;48.922;12.198;2023-01-09T11:33:26;9.00;70.10
484;DHT22;228;48.922;12.198;2023-01-09T11:38:25;8.70;70.80
484;DHT22;228;48.922;12.198;2023-01-09T11:40:57;9.00;71.10
484;DHT22;228;48.922;12.198;2023-01-09T11:43:37;8.60;70.90
484;DHT22;228;48.922;12.198;2023-01-09T11:46:08;8.80;71.90
484;DHT22;228;48.922;12.198;2023-01-09T11:48:53;8.80;70.60
484;DHT22;228;48.922;12.198;2023-01-09T11:51:31;8.80;71.00
484;DHT22;228;48.922;12.198;2023-01-09T11:54:16;8.70;71.20
484;DHT22;228;48.922;12.198;2023-01-09T11:56:46;8.70;70.50
484;DHT22;228;48.922;12.198;2023-01-09T11:59:19;8.60;70.30
484;DHT22;228;48.922;12.198;2023-01-09T12:02:02;8.60;70.90
484;DHT22;228;48.922;12.198;2023-01-09T12:04:44;8.80;70.60
484;DHT22;228;48.922;12.198;2023-01-09T12:07:24;8.90;70.20
484;DHT22;228;48.922;12.198;2023-01-09T12:13:21;9.20;68.70
484;DHT22;228;48.922;12.198;2023-01-09T12:16:22;8.90;68.50
484;DHT22;228;48.922;12.198;2023-01-09T12:19:24;9.00;67.80
484;DHT22;228;48.922;12.198;2023-01-09T12:21:58;9.20;67.10
484;DHT22;228;48.922;12.198;2023-01-09T12:30:47;8.80;67.10
484;DHT22;228;48.922;12.198;2023-01-09T12:36:31;8.70;66.30
484;DHT22;228;48.922;12.198;2023-01-09T12:39:42;8.60;66.80
484;DHT22;228;48.922;12.198;2023-01-09T12:45:40;8.80;67.00
484;DHT22;228;48.922;12.198;2023-01-09T12:56:40;9.10;66.00
484;DHT22;228;48.922;12.198;2023-01-09T13:05:08;9.30;66.30
484;DHT22;228;48.922;12.198;2023-01-09T13:07:52;9.10;65.80
484;DHT22;228;48.922;12.198;2023-01-09T13:11:24;9.30;66.10
484;DHT22;228;48.922;12.198;2023-01-09T13:16:17;9.20;65.80
484;DHT22;228;48.922;12.198;2023-01-09T13:18:55;9.50;64.90
484;DHT22;228;48.922;12.198;2023-01-09T13:21:46;10.00;62.30
484;DHT22;228;48.922;12.198;2023-01-09T13:24:26;9.80;62.40
484;DHT22;228;48.922;12.198;2023-01-09T13:26:58;9.80;64.00
484;DHT22;228;48.922;12.198;2023-01-09T13:29:40;9.70;63.90
484;DHT22;228;48.922;12.198;2023-01-09T13:32:21;9.90;63.60
484;DHT22;228;48.922;12.198;2023-01-09T13:34:54;9.70;63.80
484;DHT22;228;48.922;12.198;2023-01-09T13:37:30;9.60;64.20
484;DHT22;228;48.922;12.198;2023-01-09T13:40:03;9.20;65.20
484;DHT22;228;48.922;12.198;2023-01-09T13:42:32;9.40;65.60
484;DHT22;228;48.922;12.198;2023-01-09T13:45:24;9.50;64.10
484;DHT22;228;48.922;12.198;2023-01-09T13:50:37;10.10;62.30
484;DHT22;228;48.922;12.198;2023-01-09T14:06:37;9.60;63.70
484;DHT22;228;48.922;12.198;2023-01-09T14:11:46;9.90;64.30
484;DHT22;228;48.922;12.198;2023-01-09T14:14:27;10.50;61.40
484;DHT22;228;48.922;12.198;2023-01-09T14:16:56;10.50;59.80
484;DHT22;228;48.922;12.198;2023-01-09T14:19:37;10.50;60.40
484;DHT22;228;48.922;12.198;2023-01-09T14:22:05;10.80;59.60
484;DHT22;228;48.922;12.198;2023-01-09T14:24:39;10.60;59.50
484;DHT22;228;48.922;12.198;2023-01-09T14:38:47;10.20;61.70
484;DHT22;228;48.922;12.198;2023-01-09T14:43:56;9.60;63.20
484;DHT22;228;48.922;12.198;2023-01-09T14:46:31;9.60;63.20
484;DHT22;228;48.922;12.198;2023-01-09T14:51:34;10.20;62.10
484;DHT22;228;48.922;12.198;2023-01-09T14:54:13;9.90;62.40
484;DHT22;228;48.922;12.198;2023-01-09T14:56:45;9.90;62.80
484;DHT22;228;48.922;12.198;2023-01-09T14:59:14;9.70;62.50
484;DHT22;228;48.922;12.198;2023-01-09T15:01:43;9.50;63.30
484;DHT22;228;48.922;12.198;2023-01-09T15:04:34;9.60;63.80
484;DHT22;228;48.922;12.198;2023-01-09T15:07:02;9.80;63.30
484;DHT22;228;48.922;12.198;2023-01-09T15:09:45;9.70;63.00
484;DHT22;228;48.922;12.198;2023-01-09T15:12:18;9.70;63.60
484;DHT22;228;48.922;12.198;2023-01-09T15:14:49;9.80;63.00
484;DHT22;228;48.922;12.198;2023-01-09T15:17:27;9.50;64.10
484;DHT22;228;48.922;12.198;2023-01-09T15:19:57;9.80;63.90
484;DHT22;228;48.922;12.198;2023-01-09T15:22:31;9.70;63.70
484;DHT22;228;48.922;12.198;2023-01-09T15:25:28;9.80;63.90
484;DHT22;228;48.922;12.198;2023-01-09T15:28:18;10.10;62.50
484;DHT22;228;48.922;12.198;2023-01-09T15:31:06;10.10;61.80
484;DHT22;228;48.922;12.198;2023-01-09T15:33:38;10.20;61.60
484;DHT22;228;48.922;12.198;2023-01-09T15:36:11;10.30;61.30
484;DHT22;228;48.922;12.198;2023-01-09T15:38:40;10.20;61.20
484;DHT22;228;48.922;12.198;2023-01-09T15:41:13;10.20;61.10
484;DHT22;228;48.922;12.198;2023-01-09T15:44:05;10.10;61.40
484;DHT22;228;48.922;12.198;2023-01-09T15:46:38;10.00;61.60
484;DHT22;228;48.922;12.198;2023-01-09T15:49:07;10.00;61.70
484;DHT22;228;48.922;12.198;2023-01-09T15:51:35;9.80;62.90
484;DHT22;228;48.922;12.198;2023-01-09T15:54:01;9.70;63.20
484;DHT22;228;48.922;12.198;2023-01-09T15:56:29;9.50;63.70
484;DHT22;228;48.922;12.198;2023-01-09T15:58:56;9.40;64.00
484;DHT22;228;48.922;12.198;2023-01-09T16:01:37;9.20;64.80
484;DHT22;228;48.922;12.198;2023-01-09T16:04:11;8.90;65.90
484;DHT22;228;48.922;12.198;2023-01-09T16:06:50;8.90;66.20
484;DHT22;228;48.922;12.198;2023-01-09T16:09:26;8.50;67.20
484;DHT22;228;48.922;12.198;2023-01-09T16:12:00;8.40;68.00
484;DHT22;228;48.922;12.198;2023-01-09T16:14:39;8.60;67.80
484;DHT22;228;48.922;12.198;2023-01-09T16:17:16;8.60;67.80
484;DHT22;228;48.922;12.198;2023-01-09T16:19:49;8.50;67.80
484;DHT22;228;48.922;12.198;2023-01-09T16:22:29;8.30;68.80
484;DHT22;228;48.922;12.198;2023-01-09T16:25:02;8.30;69.00
484;DHT22;228;48.922;12.198;2023-01-09T16:28:23;8.30;68.90
484;DHT22;228;48.922;12.198;2023-01-09T16:31:45;8.50;68.30
484;DHT22;228;48.922;12.198;2023-01-09T16:33:57;8.60;69.00
484;DHT22;228;48.922;12.198;2023-01-09T16:36:25;8.90;67.40
484;DHT22;228;48.922;12.198;2023-01-09T16:38:52;8.80;67.50
484;DHT22;228;48.922;12.198;2023-01-09T16:41:20;8.70;67.60
484;DHT22;228;48.922;12.198;2023-01-09T16:44:06;8.80;66.70
484;DHT22;228;48.922;12.198;2023-01-09T16:46:38;9.00;66.90
484;DHT22;228;48.922;12.198;2023-01-09T16:49:26;8.90;66.00
484;DHT22;228;48.922;12.198;2023-01-09T16:51:54;9.00;66.00
484;DHT22;228;48.922;12.198;2023-01-09T16:54:20;9.20;65.40
484;DHT22;228;48.922;12.198;2023-01-09T16:56:51;9.50;64.40
484;DHT22;228;48.922;12.198;2023-01-09T16:59:20;9.60;63.80
484;DHT22;228;48.922;12.198;2023-01-09T17:01:52;9.60;63.30
484;DHT22;228;48.922;12.198;2023-01-09T17:04:19;9.80;63.10
484;DHT22;228;48.922;12.198;2023-01-09T17:06:46;9.60;63.00
484;DHT22;228;48.922;12.198;2023-01-09T17:09:16;9.50;64.20
484;DHT22;228;48.922;12.198;2023-01-09T17:11:43;9.40;65.30
484;DHT22;228;48.922;12.198;2023-01-09T17:14:13;9.50;65.40
484;DHT22;228;48.922;12.198;2023-01-09T17:16:40;9.60;65.80
484;DHT22;228;48.922;12.198;2023-01-09T17:19:18;9.50;66.00
484;DHT22;228;48.922;12.198;2023-01-09T17:21:45;9.10;66.90
484;DHT22;228;48.922;12.198;2023-01-09T17:24:11;8.60;68.50
484;DHT22;228;48.922;12.198;2023-01-09T17:26:55;8.10;70.60
484;DHT22;228;48.922;12.198;2023-01-09T17:29:40;8.10;71.70
484;DHT22;228;48.922;12.198;2023-01-09T17:32:07;7.90;71.20
484;DHT22;228;48.922;12.198;2023-01-09T17:34:33;7.90;72.00
484;DHT22;228;48.922;12.198;2023-01-09T17:36:59;7.80;72.10
484;DHT22;228;48.922;12.198;2023-01-09T17:39:25;7.60;72.40
484;DHT22;228;48.922;12.198;2023-01-09T17:41:51;7.60;73.20
484;DHT22;228;48.922;12.198;2023-01-09T17:44:18;7.60;72.60
484;DHT22;228;48.922;12.198;2023-01-09T17:46:44;7.70;72.90
484;DHT22;228;48.922;12.198;2023-01-09T17:49:16;7.80;72.40
484;DHT22;228;48.922;12.198;2023-01-09T17:51:43;7.90;72.10
484;DHT22;228;48.922;12.198;2023-01-09T17:54:10;8.00;72.00
484;DHT22;228;48.922;12.198;2023-01-09T17:56:37;8.00;72.10
484;DHT22;228;48.922;12.198;2023-01-09T17:59:05;8.10;72.00
484;DHT22;228;48.922;12.198;2023-01-09T18:01:34;8.30;71.50
484;DHT22;228;48.922;12.198;2023-01-09T18:04:01;8.40;70.90
484;DHT22;228;48.922;12.198;2023-01-09T18:06:27;8.30;70.60
484;DHT22;228;48.922;12.198;2023-01-09T18:08:53;8.50;70.70
484;DHT22;228;48.922;12.198;2023-01-09T18:11:20;8.10;71.40
484;DHT22;228;48.922;12.198;2023-01-09T18:13:49;8.10;72.10
484;DHT22;228;48.922;12.198;2023-01-09T18:16:21;7.60;73.30
484;DHT22;228;48.922;12.198;2023-01-09T18:18:53;7.40;75.00
484;DHT22;228;48.922;12.198;2023-01-09T18:21:22;7.50;75.10
484;DHT22;228;48.922;12.198;2023-01-09T18:23:49;7.40;75.00
484;DHT22;228;48.922;12.198;2023-01-09T18:26:16;7.10;76.00
484;DHT22;228;48.922;12.198;2023-01-09T18:28:55;6.90;77.00
484;DHT22;228;48.922;12.198;2023-01-09T18:31:23;7.10;77.20
484;DHT22;228;48.922;12.198;2023-01-09T18:33:53;7.00;76.60
484;DHT22;228;48.922;12.198;2023-01-09T18:36:26;6.80;77.80
484;DHT22;228;48.922;12.198;2023-01-09T18:38:55;6.90;77.90
484;DHT22;228;48.922;12.198;2023-01-09T18:41:23;7.00;77.60
484;DHT22;228;48.922;12.198;2023-01-09T18:43:50;6.70;78.10
484;DHT22;228;48.922;12.198;2023-01-09T18:46:18;6.80;78.30
484;DHT22;228;48.922;12.198;2023-01-09T18:48:55;6.90;77.60
484;DHT22;228;48.922;12.198;2023-01-09T18:51:25;6.80;77.80
484;DHT22;228;48.922;12.198;2023-01-09T18:53:53;7.00;77.60
484;DHT22;228;48.922;12.198;2023-01-09T18:56:20;6.70;78.50
484;DHT22;228;48.922;12.198;2023-01-09T18:58:47;6.80;77.70
484;DHT22;228;48.922;12.198;2023-01-09T19:01:14;6.80;77.60
484;DHT22;228;48.922;12.198;2023-01-09T19:03:41;6.80;77.60
484;DHT22;228;48.922;12.198;2023-01-09T19:06:07;6.80;77.30
484;DHT22;228;48.922;12.198;2023-01-09T19:08:34;6.60;77.50
484;DHT22;228;48.922;12.198;2023-01-09T19:11:01;6.80;77.00
484;DHT22;228;48.922;12.198;2023-01-09T19:13:33;6.80;77.10